M I D A S
Marine Information and Data Acquisition System
Tripno 128 of the Zeeleeuw from 2001-05-10 09:20:00 to 2001-05-10 13:55:00
Back to CruiseResearch ActivitiesStationsMapUnderway DataData graphs

EquipmentUnitsComment
TimeDGPSUTC
LatitudeDGPSDM.mWGS84
LongitudeDGPSDM.mWGS84
HeadingGyrodeg 
SOGDGPSknotsSpeed over ground
COGDGPSdegCourse over ground
DepthEcho soundermeters200 kHz
Missing or incorrect values are displayed as -999
Navigation data collected by the RV Zeeleeuw from 2001-05-10 09:20:00 to 2001-05-10 13:55:00
Time Latitude Longitude Heading SOG COG Depth
2001-05-10 09:30:30 51°9.689 2°39.716 65 1.7 69.8 7
2001-05-10 09:30:35 51°9.689 2°39.72 64.8 1.6 72.5 7
2001-05-10 09:30:40 51°9.69 2°39.723 64.7 1.6 78.5 6.9
2001-05-10 09:30:45 51°9.691 2°39.727 64.7 1.5 67.5 7
2001-05-10 09:30:50 51°9.691 2°39.73 64.8 1.4 80.6 7
2001-05-10 09:30:55 51°9.692 2°39.733 64.5 1.3 67.5 7
2001-05-10 09:31:00 51°9.692 2°39.736 64.8 1.2 68.2 7
2001-05-10 09:31:05 51°9.693 2°39.738 65.2 1.3 83.7 6.9
2001-05-10 09:31:10 51°9.693 2°39.741 65 1.3 81.2 6.9
2001-05-10 09:31:15 51°9.693 2°39.743 65.7 1.2 78.8 6.9
2001-05-10 09:31:20 51°9.694 2°39.746 66.2 1.2 88.1 7
2001-05-10 09:31:25 51°9.694 2°39.748 66.3 1.1 70.9 7
2001-05-10 09:31:30 51°9.694 2°39.751 66.7 1.1 80 7
2001-05-10 09:31:35 51°9.694 2°39.753 66.8 1.2 88.5 6.9
2001-05-10 09:31:40 51°9.695 2°39.755 67 1.1 82.7 6.9
2001-05-10 09:31:45 51°9.695 2°39.758 67.3 1.1 87.2 7
2001-05-10 09:31:50 51°9.695 2°39.76 67.3 1.1 83.3 6.9
2001-05-10 09:31:55 51°9.695 2°39.762 67.3 1.1 82.7 7
2001-05-10 09:32:00 51°9.696 2°39.765 67.5 1.2 83.7 6.9
2001-05-10 09:32:05 51°9.696 2°39.767 67.2 1.3 83.6 6.9
2001-05-10 09:32:10 51°9.696 2°39.77 67.2 1.3 81.2 6.9
2001-05-10 09:32:15 51°9.697 2°39.773 66.7 1.3 69.5 7
2001-05-10 09:32:20 51°9.697 2°39.776 66.5 1.5 82.8 7
2001-05-10 09:32:25 51°9.697 2°39.78 66 1.6 76.1 6.9
2001-05-10 09:32:30 51°9.698 2°39.783 66 1.6 69 6.9
2001-05-10 09:32:35 51°9.698 2°39.787 65.7 1.7 76.9 6.9
2001-05-10 09:32:40 51°9.699 2°39.79 65 1.7 69.9 6.9
2001-05-10 09:32:45 51°9.699 2°39.794 64.8 1.8 71.5 6.9
2001-05-10 09:32:50 51°9.7 2°39.798 64 1.8 75.7 6.9
2001-05-10 09:32:55 51°9.701 2°39.802 63.7 1.8 71.3 6.9
2001-05-10 09:33:00 51°9.702 2°39.806 63.7 1.9 67.5 6.9
2001-05-10 09:33:05 51°9.703 2°39.81 63.3 1.9 68.3 7
2001-05-10 09:33:10 51°9.704 2°39.814 63.2 2 74.1 7
2001-05-10 09:33:15 51°9.705 2°39.818 63.2 2.1 68.1 7
2001-05-10 09:33:20 51°9.706 2°39.822 63.5 2 69.7 7
2001-05-10 09:33:25 51°9.707 2°39.826 63.7 2 73.7 7
2001-05-10 09:33:30 51°9.708 2°39.831 63.8 2.1 76.9 6.9
2001-05-10 09:33:35 51°9.709 2°39.835 64 2.1 71.9 6.9
2001-05-10 09:33:40 51°9.709 2°39.84 64.3 2.1 69.9 6.9
2001-05-10 09:33:45 51°9.71 2°39.844 64.8 2.2 73.1 6.9
2001-05-10 09:33:50 51°9.711 2°39.849 65.3 2.1 70.9 6.9
2001-05-10 09:33:55 51°9.712 2°39.853 65.7 2.1 69.5 6.9
2001-05-10 09:34:00 51°9.713 2°39.858 66 2.2 75.3 6.9
2001-05-10 09:34:05 51°9.714 2°39.863 65.8 2.3 76.5 6.9
2001-05-10 09:34:10 51°9.715 2°39.867 66.3 2.2 74.2 6.9
2001-05-10 09:34:15 51°9.716 2°39.872 66.7 2.2 72.5 6.9
2001-05-10 09:34:20 51°9.717 2°39.877 66.8 2.3 71.5 6.9
2001-05-10 09:34:25 51°9.717 2°39.882 67.3 2.3 78.7 6.9
2001-05-10 09:34:30 51°9.718 2°39.887 67.2 2.3 80.3 6.9
2001-05-10 09:34:35 51°9.719 2°39.892 67.2 2.3 75.1 7
2001-05-10 09:34:39 51°9.72 2°39.896 67.3 2.3 75.8 6.9
2001-05-10 09:34:45 51°9.721 2°39.902 67.2 2.5 75.7 6.9
2001-05-10 09:34:50 51°9.722 2°39.907 67 2.4 76.2 6.9
2001-05-10 09:34:55 51°9.723 2°39.912 67 2.3 71.8 6.9
2001-05-10 09:35:00 51°9.724 2°39.917 66.8 2.4 77.7 6.9
2001-05-10 09:35:05 51°9.725 2°39.921 66.2 2.4 72.7 6.9
2001-05-10 09:35:10 51°9.726 2°39.926 65.8 2.4 73.7 6.9
2001-05-10 09:35:15 51°9.726 2°39.931 65.8 2.3 70.9 6.9
2001-05-10 09:35:20 51°9.727 2°39.937 65.5 2.4 76.1 6.8
2001-05-10 09:35:25 51°9.728 2°39.942 65.2 2.3 71.2 6.9
2001-05-10 09:35:30 51°9.729 2°39.947 65.2 2.4 80.3 6.9
2001-05-10 09:35:35 51°9.73 2°39.952 64.8 2.3 74.1 6.9
2001-05-10 09:35:40 51°9.731 2°39.957 64.7 2.3 69.3 6.9
2001-05-10 09:35:45 51°9.732 2°39.962 64.8 2.3 72.2 6.9
2001-05-10 09:35:50 51°9.733 2°39.967 64.5 2.3 77.5 6.9
2001-05-10 09:35:55 51°9.734 2°39.972 64.3 2.3 68.6 6.9
2001-05-10 09:36:00 51°9.734 2°39.977 64.8 2.2 71 6.8
2001-05-10 09:36:05 51°9.735 2°39.982 65.2 2.2 74.6 6.9
2001-05-10 09:36:09 51°9.736 2°39.985 65.2 2.2 79.9 6.9
2001-05-10 09:36:15 51°9.737 2°39.991 65.2 2.2 69.8 6.9
2001-05-10 09:36:20 51°9.738 2°39.996 65.8 2.2 74.4 6.9
2001-05-10 09:36:25 51°9.739 2°40 66 2.1 75.8 6.9
2001-05-10 09:36:30 51°9.74 2°40.005 66.2 2.1 72.4 6.9
2001-05-10 09:36:35 51°9.741 2°40.009 66.7 2.1 73.6 6.9
2001-05-10 09:36:40 51°9.741 2°40.014 67.2 2.1 76.1 6.9
2001-05-10 09:36:45 51°9.742 2°40.018 67 2.2 72.3 6.9
2001-05-10 09:36:50 51°9.743 2°40.023 67 2.1 75.7 6.9
2001-05-10 09:36:55 51°9.744 2°40.027 66.8 2.1 66.6 6.9
2001-05-10 09:37:00 51°9.744 2°40.032 66.3 2.1 75.5 6.9
2001-05-10 09:37:05 51°9.745 2°40.037 65.5 2.2 74.7 6.9
2001-05-10 09:37:10 51°9.746 2°40.041 65 2.1 72.7 6.8
2001-05-10 09:37:15 51°9.747 2°40.046 64.8 2 67.8 6.7
2001-05-10 09:37:20 51°9.748 2°40.05 64.5 2.1 69.7 6.9
2001-05-10 09:37:25 51°9.749 2°40.054 63.8 2.1 74.3 6.9
2001-05-10 09:37:30 51°9.75 2°40.059 63.2 2.1 71.8 6.9
2001-05-10 09:37:35 51°9.751 2°40.063 63 2.1 67.4 6.8
2001-05-10 09:37:40 51°9.752 2°40.068 62.5 2 65.9 6.8
2001-05-10 09:37:45 51°9.753 2°40.072 62 2 68.9 6.8
2001-05-10 09:37:50 51°9.754 2°40.076 61.7 2.1 71.9 6.8
2001-05-10 09:37:55 51°9.755 2°40.08 62 2.1 72.3 6.8
2001-05-10 09:38:00 51°9.756 2°40.085 62.5 2 69.9 6.8
2001-05-10 09:38:05 51°9.757 2°40.09 62.8 2 71.7 6.8
2001-05-10 09:38:10 51°9.758 2°40.094 63.5 2.1 70.8 6.8
2001-05-10 09:38:15 51°9.758 2°40.098 64.2 2.1 70.9 6.7
2001-05-10 09:38:20 51°9.759 2°40.103 65.2 2.1 74.1 6.8
2001-05-10 09:38:25 51°9.76 2°40.108 66 2.1 79.1 6.8
2001-05-10 09:38:30 51°9.761 2°40.112 66.7 2.1 80.1 6.8
2001-05-10 09:38:35 51°9.762 2°40.116 67.5 2.1 77.3 6.8
2001-05-10 09:38:40 51°9.763 2°40.121 68 2.1 82.8 6.7
2001-05-10 09:38:45 51°9.763 2°40.125 68.5 2 76 6.7
2001-05-10 09:38:50 51°9.763 2°40.13 68.8 2.1 81 6.7
2001-05-10 09:38:55 51°9.764 2°40.134 69 2.2 82 6.7
2001-05-10 10:31:03 51°11.617 2°45.698 65.2 9.1 68.1 10.2
2001-05-10 10:31:08 51°11.622 2°45.717 65.5 9 67.8 10.4
2001-05-10 10:31:13 51°11.626 2°45.734 65.8 9 69.3 10.4
2001-05-10 10:31:18 51°11.631 2°45.753 65.7 9.1 67.7 10.4
2001-05-10 10:31:23 51°11.635 2°45.771 65.5 9.1 67.6 10.4
2001-05-10 10:31:28 51°11.64 2°45.79 65.2 9 66.3 10.5
2001-05-10 10:31:33 51°11.645 2°45.808 64 9.1 66.3 10.4
2001-05-10 10:31:38 51°11.651 2°45.826 63 9.1 65.2 10.5
2001-05-10 10:34:20 51°11.806 2°46.419 64.8 9 66.6 10.6
2001-05-10 10:34:25 51°11.81 2°46.438 65 9 69.6 10.5
2001-05-10 10:34:30 51°11.815 2°46.457 65.7 9.1 67.9 10.5
2001-05-10 10:34:35 51°11.82 2°46.475 65.5 9.1 68.4 10.5
2001-05-10 10:34:40 51°11.824 2°46.493 64.8 9 67.9 10.6
2001-05-10 10:34:45 51°11.829 2°46.512 64.7 8.9 69.5 10.6
2001-05-10 10:34:50 51°11.834 2°46.53 64.7 9.1 69.7 10.5
2001-05-10 10:34:55 51°11.838 2°46.55 65.3 9.1 68.9 10.6
2001-05-10 10:35:00 51°11.843 2°46.568 65.2 9 68.2 10.6
2001-05-10 10:35:05 51°11.847 2°46.587 65 9 68.3 10.5
2001-05-10 10:35:10 51°11.852 2°46.605 65 9.1 67.6 10.6
2001-05-10 10:35:15 51°11.857 2°46.624 65 9.1 67 10.5
2001-05-10 10:35:20 51°11.862 2°46.642 64.7 9 67 10.6
2001-05-10 10:35:25 51°11.867 2°46.661 64 9 67.3 10.5
2001-05-10 10:35:29 51°11.87 2°46.676 64.5 9 67.3 10.6
2001-05-10 10:35:35 51°11.876 2°46.698 65.2 9 69.4 10.6
2001-05-10 10:35:39 51°11.879 2°46.713 65.8 9 69.9 10.4
2001-05-10 10:35:45 51°11.884 2°46.736 66.8 9 71.7 10.4
2001-05-10 10:35:50 51°11.888 2°46.755 67.8 9.1 71.9 10.4
2001-05-10 10:35:55 51°11.893 2°46.774 67.7 9.1 69.5 10.5
2001-05-10 10:36:00 51°11.897 2°46.793 66.8 9.1 70.7 10.4
2001-05-10 10:36:05 51°11.902 2°46.811 66.2 9.1 69 10.3
2001-05-10 10:36:10 51°11.906 2°46.83 65.8 9 70.3 10.3
2001-05-10 10:36:15 51°11.911 2°46.849 66.2 9.1 69.9 10.4
2001-05-10 10:36:20 51°11.915 2°46.868 66.8 9 69.8 10.3
2001-05-10 10:36:25 51°11.919 2°46.887 67.2 9.1 70.2 10.3
2001-05-10 10:36:30 51°11.923 2°46.906 67.5 9 71.2 10.3
2001-05-10 10:36:35 51°11.927 2°46.924 68 9 70 10.3
2001-05-10 10:36:40 51°11.931 2°46.944 68 9.2 69.1 10.3
2001-05-10 10:36:45 51°11.936 2°46.962 66.8 9.2 67.9 10.3
2001-05-10 10:36:50 51°11.94 2°46.981 65 9.1 67.7 10.3
2001-05-10 10:36:55 51°11.945 2°46.999 63.8 9.1 66.7 10.4
2001-05-10 10:37:00 51°11.95 2°47.018 64 9 66.7 10.4
2001-05-10 10:37:05 51°11.955 2°47.036 64 9.1 66.7 10.4
2001-05-10 10:37:10 51°11.96 2°47.055 64.3 9 66.9 10.3
2001-05-10 10:37:15 51°11.965 2°47.073 64.5 9.1 67.3 10.3
2001-05-10 10:37:20 51°11.969 2°47.092 65 9.1 68 10.3
2001-05-10 10:37:25 51°11.974 2°47.111 65.3 9.2 70.2 10.1
2001-05-10 10:37:30 51°11.979 2°47.129 65.2 9.2 66.7 10.2
2001-05-10 10:37:35 51°11.984 2°47.148 64.5 9 68.1 10.2
2001-05-10 10:37:40 51°11.989 2°47.166 64.2 9.1 67.4 10.2
2001-05-10 10:37:45 51°11.994 2°47.185 64.3 9.1 67.7 10.2
2001-05-10 10:37:50 51°11.999 2°47.203 64 9.1 66.6 10.2
2001-05-10 10:37:55 51°12.004 2°47.221 63.3 9.2 65 10.3
2001-05-10 10:38:00 51°12.009 2°47.239 61 9.1 61.8 10.3
2001-05-10 10:38:05 51°12.015 2°47.257 59.5 9.1 61.9 10.3
2001-05-10 10:38:10 51°12.021 2°47.275 59.7 9 63.4 10.2
2001-05-10 10:38:15 51°12.027 2°47.292 61 9 64.4 10.3
2001-05-10 10:38:20 51°12.033 2°47.309 61 9.1 62.7 10.3
2001-05-10 10:38:25 51°12.039 2°47.327 60 9.1 62.2 10.3
2001-05-10 10:38:30 51°12.044 2°47.345 59.3 9.2 62.3 10.3
2001-05-10 10:38:35 51°12.05 2°47.363 59.3 9.1 62.5 10.3
2001-05-10 10:38:40 51°12.056 2°47.381 59.3 9.2 62.8 10.3
2001-05-10 10:38:45 51°12.062 2°47.399 60 9.2 63.3 10.2
2001-05-10 10:38:50 51°12.068 2°47.417 60.3 9.1 62.7 10.3
2001-05-10 10:38:55 51°12.073 2°47.435 60.5 9.1 64.2 10.2
2001-05-10 10:39:00 51°12.079 2°47.453 60.3 9.1 63.7 10.3
2001-05-10 10:39:05 51°12.085 2°47.471 59.7 9.1 62.4 10.3
2001-05-10 10:39:10 51°12.091 2°47.489 59.7 9.2 63.2 10.3
2001-05-10 10:39:15 51°12.097 2°47.507 59.7 9.3 63.6 10.3
2001-05-10 10:39:20 51°12.103 2°47.525 60 9.2 62.1 10.3
2001-05-10 10:39:25 51°12.109 2°47.543 60.3 9.2 63.3 10.2
2001-05-10 10:39:30 51°12.114 2°47.561 61 9.1 62.7 10.2
2001-05-10 10:39:35 51°12.12 2°47.579 61.2 9.2 63.8 10.2
2001-05-10 10:39:40 51°12.126 2°47.597 61.2 9.2 61.9 10.2
2001-05-10 10:39:45 51°12.132 2°47.616 60.7 9.2 63.7 10.3
2001-05-10 10:39:50 51°12.138 2°47.634 60 9.3 62.5 10.2
2001-05-10 10:39:55 51°12.144 2°47.652 59.8 9.3 61.7 10.2
2001-05-10 10:40:00 51°12.15 2°47.67 59.8 9.3 62.1 10.2
2001-05-10 10:40:05 51°12.155 2°47.688 60 9.3 62.1 10.2
2001-05-10 10:40:10 51°12.161 2°47.706 60.2 9.3 62.1 10.1
2001-05-10 10:40:15 51°12.168 2°47.724 59.3 9.4 61.8 10.2
2001-05-10 10:40:20 51°12.174 2°47.742 59.2 9.2 63.1 10.2
2001-05-10 10:40:25 51°12.18 2°47.761 59.5 9.2 61.1 10.1
2001-05-10 10:40:30 51°12.186 2°47.779 60.2 9.3 62.5 9.9
2001-05-10 10:40:35 51°12.191 2°47.797 60.8 9.3 65 10.1
2001-05-10 10:40:40 51°12.197 2°47.816 61.7 9.3 64.8 10.2
2001-05-10 10:40:45 51°12.202 2°47.835 61.7 9.3 62.5 10.1
2001-05-10 10:40:50 51°12.208 2°47.853 61.3 9.3 62.3 10.1
2001-05-10 10:40:55 51°12.214 2°47.871 60.3 9.3 62.2 10.2
2001-05-10 10:41:00 51°12.22 2°47.889 60.2 9.3 62.7 10.2
2001-05-10 10:41:05 51°12.226 2°47.907 59.8 9.2 62.5 10.1
2001-05-10 10:41:10 51°12.232 2°47.925 59.8 9.3 61.6 10.2
2001-05-10 10:41:15 51°12.238 2°47.944 60 9.3 62.4 10.2
2001-05-10 10:41:20 51°12.244 2°47.962 60.5 9.3 63.5 10.2
2001-05-10 10:41:25 51°12.249 2°47.98 61.2 9.3 64.1 10.1
2001-05-10 10:41:30 51°12.255 2°47.999 61.8 9.4 66.2 10.1
2001-05-10 10:41:35 51°12.26 2°48.018 62.5 9.3 66.5 10.2
2001-05-10 10:41:40 51°12.264 2°48.036 63.7 9.3 67.5 10.1
2001-05-10 10:41:45 51°12.268 2°48.056 64.3 9.4 67.5 10.1
2001-05-10 10:41:50 51°12.273 2°48.074 64.2 9.4 66.3 10.1
2001-05-10 10:41:55 51°12.278 2°48.093 63.8 9.5 66.6 10.1
2001-05-10 10:42:00 51°12.283 2°48.112 62.2 9.3 63.8 10
2001-05-10 10:42:05 51°12.29 2°48.131 60.5 9.3 62 10.1
2001-05-10 10:42:10 51°12.296 2°48.149 58.3 9.6 59.7 10.1
2001-05-10 10:42:15 51°12.303 2°48.167 56.5 9.4 58.3 10
2001-05-10 10:42:20 51°12.31 2°48.185 55.2 9.3 58.2 10
2001-05-10 10:42:25 51°12.317 2°48.203 55.5 9.4 59.4 10
2001-05-10 10:42:30 51°12.324 2°48.221 57 9.5 62 10
2001-05-10 10:42:35 51°12.33 2°48.239 59.2 9.5 62.7 10
2001-05-10 10:42:40 51°12.336 2°48.258 61 9.5 64.7 10
2001-05-10 10:42:45 51°12.341 2°48.277 61.5 9.5 63.7 10
2001-05-10 10:42:50 51°12.347 2°48.296 61 9.5 63.6 10
2001-05-10 10:42:55 51°12.353 2°48.314 60 9.7 62.2 10
2001-05-10 10:43:00 51°12.36 2°48.333 59.5 9.7 63 10
2001-05-10 10:43:05 51°12.366 2°48.352 60 9.6 63.8 9.9
2001-05-10 10:43:10 51°12.371 2°48.371 60.3 9.7 63.9 10
2001-05-10 10:43:15 51°12.377 2°48.39 60.8 9.7 64.7 10
2001-05-10 10:43:20 51°12.383 2°48.41 60 9.7 64.4 10
2001-05-10 10:43:25 51°12.389 2°48.429 60.3 9.7 65.2 10
2001-05-10 10:43:30 51°12.395 2°48.448 60.8 9.7 65.1 9.9
2001-05-10 10:43:35 51°12.4 2°48.468 60.7 9.7 64.1 9.9
2001-05-10 10:43:40 51°12.406 2°48.487 59.8 9.7 62.7 9.9
2001-05-10 10:43:45 51°12.412 2°48.506 60.7 9.7 64.8 9.9
2001-05-10 10:43:50 51°12.418 2°48.526 60.5 9.7 63.8 9.9
2001-05-10 10:43:55 51°12.424 2°48.545 60.2 9.8 63.8 9.9
2001-05-10 10:44:00 51°12.43 2°48.564 59.3 9.7 64.5 9.9
2001-05-10 10:44:05 51°12.436 2°48.583 59.2 9.6 62.1 9.9
2001-05-10 10:44:10 51°12.442 2°48.602 59.8 9.7 64.6 9.9
2001-05-10 10:44:15 51°12.448 2°48.622 60.2 9.7 63.4 9.9
2001-05-10 10:44:20 51°12.454 2°48.641 60.5 9.7 63.5 9.9
2001-05-10 10:44:25 51°12.46 2°48.66 59.7 9.6 61.7 9.9
2001-05-10 10:44:30 51°12.466 2°48.679 58.7 9.6 61.7 9.9
2001-05-10 11:12:01 51°14.331 2°54.041 68.8 1.9 78.5 7.9
2001-05-10 11:12:06 51°14.331 2°54.045 69 1.9 79.6 7.9
2001-05-10 11:12:11 51°14.331 2°54.049 69 1.9 81.6 7.8
2001-05-10 11:12:16 51°14.332 2°54.053 69 1.9 80.1 7.7
2001-05-10 11:12:21 51°14.332 2°54.057 69.2 1.8 80.1 7.9
2001-05-10 11:12:27 51°14.332 2°54.062 69 1.9 86.6 7.8
2001-05-10 11:12:32 51°14.332 2°54.065 68.8 1.7 87 7.8
2001-05-10 11:12:37 51°14.333 2°54.069 68.8 1.8 85.5 7.8
2001-05-10 11:12:42 51°14.332 2°54.074 69.2 1.8 85.2 7.9
2001-05-10 11:12:47 51°14.332 2°54.077 69.3 1.7 83 7.9
2001-05-10 11:12:51 51°14.332 2°54.081 69.3 1.7 83 7.9
2001-05-10 11:12:56 51°14.333 2°54.084 69.2 1.7 86.2 7.9
2001-05-10 11:13:02 51°14.333 2°54.089 69.3 1.6 83.5 7.8
2001-05-10 11:13:06 51°14.333 2°54.092 69.2 1.7 84.3 7.9
2001-05-10 11:13:11 51°14.334 2°54.096 69 1.7 85.2 7.9
2001-05-10 11:13:16 51°14.334 2°54.099 69 1.7 86.8 7.9
2001-05-10 11:13:21 51°14.334 2°54.102 68.7 1.7 89.5 7.9
2001-05-10 11:13:26 51°14.334 2°54.106 68.7 1.7 86.1 7.8
2001-05-10 11:13:32 51°14.334 2°54.11 68.7 1.7 87.4 7.9
2001-05-10 11:13:36 51°14.334 2°54.113 68.7 1.6 88.6 7.9
2001-05-10 11:13:41 51°14.334 2°54.116 68.3 1.6 87.1 7.8
2001-05-10 11:13:47 51°14.334 2°54.12 68.5 1.6 85.9 7.8
2001-05-10 11:13:52 51°14.334 2°54.124 68.5 1.5 85.7 7.8
2001-05-10 11:13:56 51°14.334 2°54.127 68.5 1.6 86.3 7.9
2001-05-10 11:14:01 51°14.334 2°54.13 68.5 1.5 88.3 7.8
2001-05-10 11:14:06 51°14.334 2°54.134 68.2 1.6 90.9 7.9
2001-05-10 11:14:11 51°14.334 2°54.137 68.3 1.6 86.3 7.8
2001-05-10 11:14:15 51°14.334 2°54.14 68.3 1.5 85.6 7.6
2001-05-10 11:14:21 51°14.334 2°54.144 68.3 1.5 80 7.7
2001-05-10 11:14:26 51°14.334 2°54.147 68.3 1.5 83.6 7.8
2001-05-10 11:14:31 51°14.334 2°54.15 68.3 1.6 90.5 7.7
2001-05-10 11:14:36 51°14.334 2°54.154 68.5 1.5 86.8 7.8
2001-05-10 11:14:41 51°14.334 2°54.157 68.7 1.5 81.7 7.7
2001-05-10 11:14:46 51°14.335 2°54.16 68.7 1.5 88.2 7.7
2001-05-10 11:14:51 51°14.335 2°54.164 68.7 1.5 82.7 7.8
2001-05-10 11:14:56 51°14.335 2°54.167 68.8 1.5 83.6 7.8
2001-05-10 11:15:01 51°14.335 2°54.17 68.8 1.6 84.5 7.9
2001-05-10 11:15:06 51°14.335 2°54.174 68.7 1.6 87.1 7.8
2001-05-10 11:15:11 51°14.335 2°54.177 68.8 1.6 89.6 7.7
2001-05-10 11:15:16 51°14.335 2°54.18 68.8 1.4 87.5 7.8
2001-05-10 11:15:21 51°14.336 2°54.184 68.8 1.5 89.4 7.8
2001-05-10 11:15:26 51°14.336 2°54.187 68.7 1.5 89.7 7.7
2001-05-10 11:15:31 51°14.336 2°54.19 68.8 1.5 83 7.8
2001-05-10 11:15:36 51°14.336 2°54.193 68.8 1.5 82.2 7.7
2001-05-10 11:15:42 51°14.336 2°54.197 68.8 1.5 86.3 7.7
2001-05-10 11:15:46 51°14.336 2°54.2 68.8 1.5 81.4 7.8
2001-05-10 11:15:51 51°14.336 2°54.203 68.8 1.6 87.3 7.7
2001-05-10 11:15:56 51°14.336 2°54.206 68.8 1.4 86.9 7.8
2001-05-10 11:16:01 51°14.336 2°54.209 68.7 1.4 89.6 7.7
2001-05-10 11:16:06 51°14.337 2°54.212 68.7 1.5 85.1 7.7
2001-05-10 11:16:11 51°14.337 2°54.216 68.8 1.5 88.4 7.6
2001-05-10 11:16:16 51°14.337 2°54.219 68.7 1.5 81.1 7.7
2001-05-10 11:16:21 51°14.337 2°54.222 68.7 1.5 85.5 7.7
2001-05-10 11:16:26 51°14.337 2°54.225 68.8 1.4 88.5 7.7
2001-05-10 11:16:31 51°14.337 2°54.228 68.5 1.5 87.7 7.7
2001-05-10 11:16:36 51°14.337 2°54.232 68.7 1.4 89.9 7.8
2001-05-10 11:16:41 51°14.337 2°54.235 68.5 1.4 88.4 7.8
2001-05-10 11:16:45 51°14.338 2°54.237 68.5 1.5 85.4 7.7
2001-05-10 11:16:51 51°14.338 2°54.241 68.7 1.5 87.7 7.8
2001-05-10 11:16:56 51°14.338 2°54.245 68.8 1.5 88.2 7.7
2001-05-10 11:17:01 51°14.338 2°54.248 68.8 1.5 88.8 7.7
2001-05-10 11:17:06 51°14.338 2°54.251 68.8 1.5 86.7 7.9
2001-05-10 11:17:11 51°14.338 2°54.254 68.8 1.5 85.1 7.7
2001-05-10 11:17:16 51°14.338 2°54.257 68.8 1.4 87.5 7.6
2001-05-10 11:17:22 51°14.338 2°54.261 68.7 1.4 78.9 7.8
2001-05-10 11:17:26 51°14.338 2°54.264 68.7 1.3 89.7 7.8
2001-05-10 11:17:31 51°14.338 2°54.267 68.7 1.4 86.6 7.8
2001-05-10 11:17:36 51°14.339 2°54.27 68.5 1.5 89.8 7.8
2001-05-10 11:17:41 51°14.339 2°54.273 68.7 1.4 88.7 7.8
2001-05-10 11:17:46 51°14.339 2°54.276 68.8 1.4 89 7.8
2001-05-10 11:17:51 51°14.339 2°54.28 68.8 1.4 82.8 7.8
2001-05-10 11:17:55 51°14.339 2°54.282 68.8 1.5 82 7.8
2001-05-10 11:18:01 51°14.339 2°54.286 68.8 1.5 88.5 7.9
2001-05-10 11:18:06 51°14.339 2°54.289 68.5 1.5 86.5 7.8
2001-05-10 11:18:11 51°14.34 2°54.292 68.5 1.5 80.6 7.9
2001-05-10 11:18:16 51°14.34 2°54.295 68.2 1.4 86.1 7.9
2001-05-10 11:18:21 51°14.34 2°54.298 68.3 1.4 84.7 7.8
2001-05-10 11:18:26 51°14.34 2°54.302 68.3 1.4 92.4 7.8
2001-05-10 11:18:31 51°14.34 2°54.305 68.3 1.4 86.1 7.6
2001-05-10 11:18:36 51°14.341 2°54.308 68.5 1.3 91.4 7.7
2001-05-10 11:18:41 51°14.341 2°54.311 68.5 1.3 87.9 7.6
2001-05-10 11:18:46 51°14.341 2°54.314 68.5 1.4 88.5 7.7
2001-05-10 11:18:51 51°14.341 2°54.318 68.7 1.4 89.8 7.7
2001-05-10 11:18:55 51°14.342 2°54.32 68.7 1.4 90.3 7.7
2001-05-10 11:19:02 51°14.342 2°54.324 68.8 1.4 88.9 7.8
2001-05-10 11:19:06 51°14.342 2°54.327 68.7 1.4 84 7.6
2001-05-10 11:19:11 51°14.342 2°54.33 68.7 1.4 87.7 7.8
2001-05-10 11:19:16 51°14.342 2°54.333 68.7 1.4 89.4 7.9
2001-05-10 11:19:21 51°14.342 2°54.336 68.5 1.4 88.3 7.8
2001-05-10 11:19:26 51°14.343 2°54.339 68.5 1.4 85.6 7.6
2001-05-10 11:19:31 51°14.343 2°54.342 68.3 1.4 86.4 7.7
2001-05-10 11:19:36 51°14.343 2°54.345 68.5 1.4 84 7.6
2001-05-10 11:19:41 51°14.343 2°54.348 68.5 1.4 88.6 7.8
2001-05-10 11:19:46 51°14.344 2°54.351 68.5 1.4 87.4 7.9
2001-05-10 11:19:51 51°14.344 2°54.355 68.7 1.4 85.7 8
2001-05-10 11:19:56 51°14.344 2°54.357 68.7 1.4 89.3 8
2001-05-10 11:20:01 51°14.344 2°54.36 68.7 1.4 91.1 7.9
2001-05-10 11:20:06 51°14.344 2°54.363 68.5 1.4 90.1 7.7
2001-05-10 11:20:11 51°14.344 2°54.366 68.7 1.4 90.1 7.9
2001-05-10 11:20:16 51°14.344 2°54.369 68.7 1.5 87.2 7.5
2001-05-10 11:20:21 51°14.344 2°54.373 68.8 1.4 82.7 7.8
2001-05-10 11:20:26 51°14.344 2°54.376 68.8 1.4 86.7 7.6
2001-05-10 11:20:31 51°14.344 2°54.379 68.7 1.4 90.8 7.5
2001-05-10 11:20:36 51°14.344 2°54.382 68.7 1.6 83.6 7.9
2001-05-10 11:20:41 51°14.344 2°54.386 68.8 2.1 81.5 8
2001-05-10 11:20:47 51°14.344 2°54.393 69 3 78.4 7.8
2001-05-10 11:20:51 51°14.345 2°54.399 69.2 3.5 79 7.6
2001-05-10 11:20:56 51°14.346 2°54.407 69.5 4.1 75.3 8
2001-05-10 11:21:01 51°14.347 2°54.417 69.7 4.5 74.5 7.9
2001-05-10 11:21:06 51°14.349 2°54.427 69.8 4.9 75.6 7.8
2001-05-10 11:21:11 51°14.351 2°54.438 69.7 5.2 75.6 7.5
2001-05-10 11:21:16 51°14.352 2°54.449 69.5 5.6 74.8 7.8
2001-05-10 11:21:22 51°14.355 2°54.464 69.7 5.9 74.3 7.8
2001-05-10 11:21:26 51°14.357 2°54.475 69.7 6.2 72.8 7.6
2001-05-10 11:21:31 51°14.359 2°54.488 69.8 6.4 73.6 7.5
2001-05-10 11:21:36 51°14.362 2°54.502 69.3 6.7 72.2 7.6
2001-05-10 11:21:41 51°14.365 2°54.516 67.5 6.8 70.2 7.8
2001-05-10 11:21:45 51°14.367 2°54.527 66 6.9 71 7.6
2001-05-10 11:21:51 51°14.371 2°54.544 64.5 7.1 67.4 7.9
2001-05-10 11:21:56 51°14.375 2°54.558 63.8 7.1 67.3 7.9
2001-05-10 11:22:01 51°14.378 2°54.573 63.3 7.3 67.6 7.7
2001-05-10 11:22:06 51°14.382 2°54.588 63 7.3 66.7 7.6
2001-05-10 11:22:11 51°14.386 2°54.603 63.2 7.4 67.7 7.7
2001-05-10 11:22:16 51°14.39 2°54.618 63.7 7.5 67.6 7.8
2001-05-10 11:22:21 51°14.394 2°54.633 64 7.6 67.6 7.7
2001-05-10 11:22:26 51°14.398 2°54.649 63.8 7.8 68.1 7.6
2001-05-10 11:22:31 51°14.402 2°54.665 64.2 7.9 68.1 7.8
2001-05-10 11:22:36 51°14.406 2°54.681 65 8.1 69.4 7.8
2001-05-10 11:22:41 51°14.41 2°54.698 65.2 8.3 68.4 8.2
2001-05-10 11:22:46 51°14.414 2°54.715 65.7 8.4 68.7 8.4
2001-05-10 11:22:51 51°14.418 2°54.732 65.3 8.5 68.4 8.5
2001-05-10 11:22:57 51°14.423 2°54.753 64.7 8.6 67.7 8.5
2001-05-10 11:23:01 51°14.427 2°54.767 64.8 8.7 68.1 8.4
2001-05-10 11:23:06 51°14.431 2°54.785 65.2 8.7 69.4 8.4
2001-05-10 11:23:11 51°14.435 2°54.803 65.7 8.7 70.3 8.4
2001-05-10 11:23:16 51°14.439 2°54.821 67 8.8 73.5 8.4
2001-05-10 11:23:22 51°14.442 2°54.844 69.7 8.8 76.1 8.3
2001-05-10 11:23:27 51°14.445 2°54.863 73.5 8.8 79.9 8.2
2001-05-10 11:23:31 51°14.446 2°54.878 77.2 8.7 85.5 8.4
2001-05-10 11:23:37 51°14.447 2°54.901 81.7 8.8 89.7 -999
2001-05-10 11:23:42 51°14.446 2°54.921 87.2 8.9 95.7 -999
2001-05-10 11:23:47 51°14.445 2°54.941 90.5 8.9 96 -999
2001-05-10 11:23:52 51°14.443 2°54.96 93 9 100.7 -999
2001-05-10 11:23:57 51°14.441 2°54.98 94.7 9 100.4 -999
2001-05-10 11:24:02 51°14.437 2°55 97.8 9.2 103.9 -999
2001-05-10 11:24:07 51°14.435 2°55.02 98.5 9.1 102 -999
2001-05-10 11:24:12 51°14.431 2°55.039 99.8 9.2 105.9 -999
2001-05-10 11:24:17 51°14.428 2°55.059 101.5 9.2 106.9 8.5
2001-05-10 11:24:22 51°14.424 2°55.078 103 9.3 107.3 -999
2001-05-10 11:24:27 51°14.42 2°55.098 104 9.1 109 -999
2001-05-10 11:24:32 51°14.415 2°55.116 107.3 9.2 115.2 -999
2001-05-10 11:24:37 51°14.409 2°55.134 114.2 9.1 120.9 7
2001-05-10 11:24:42 51°14.402 2°55.151 119.5 9.2 124.4 7.8
2001-05-10 11:24:46 51°14.396 2°55.164 122 9.2 125.9 8.4
2001-05-10 11:24:51 51°14.388 2°55.18 123.8 9.3 128.1 -999
2001-05-10 11:24:57 51°14.378 2°55.2 124.8 9.4 127.5 -999
2001-05-10 11:25:02 51°14.369 2°55.216 125 9.4 128.8 -999
2001-05-10 11:25:07 51°14.361 2°55.233 124.8 9.5 127.4 8.5
2001-05-10 11:25:12 51°14.353 2°55.249 124.5 9.5 128.4 8.4
2001-05-10 11:25:16 51°14.347 2°55.263 124.7 9.5 127.8 8.4
2001-05-10 11:25:21 51°14.338 2°55.279 125.2 9.5 129.2 8.1
2001-05-10 11:25:27 51°14.329 2°55.299 124.7 9.5 128 -999
2001-05-10 11:25:32 51°14.321 2°55.315 124.5 9.4 128.6 -999
2001-05-10 11:25:37 51°14.313 2°55.33 125.3 8.8 128.8 8.1
2001-05-10 11:25:42 51°14.305 2°55.345 126 8.6 130.4 -999
2001-05-10 11:25:47 51°14.298 2°55.359 127.2 8.2 131.5 -999
2001-05-10 11:25:52 51°14.291 2°55.372 129 7.9 134.5 -999
2001-05-10 11:25:57 51°14.283 2°55.384 131.2 7.8 135.8 -999
2001-05-10 11:26:03 51°14.273 2°55.397 133 7.5 138.3 -999
2001-05-10 11:26:07 51°14.267 2°55.406 135.3 7.3 140.4 -999
2001-05-10 11:26:13 51°14.258 2°55.417 138.3 6.9 142.8 -999
2001-05-10 11:26:17 51°14.252 2°55.424 141 6.6 145 -999
2001-05-10 11:26:22 51°14.245 2°55.432 143.3 6.4 147.5 -999
2001-05-10 11:26:27 51°14.237 2°55.439 145.7 6.3 149 -999
2001-05-10 11:26:32 51°14.23 2°55.446 147.8 6.3 152 -999
2001-05-10 11:26:37 51°14.222 2°55.452 150.7 6.4 154.9 -999
2001-05-10 11:26:42 51°14.214 2°55.458 153 6.5 157.3 -999
2001-05-10 11:26:47 51°14.205 2°55.463 154.3 6.6 158.6 -999
2001-05-10 11:26:52 51°14.196 2°55.468 155 6.7 158.7 -999
2001-05-10 11:26:57 51°14.187 2°55.474 154.5 6.7 159 -999
2001-05-10 11:27:02 51°14.179 2°55.479 153.7 6.8 157.8 -999
2001-05-10 11:27:07 51°14.17 2°55.485 153.2 6.8 158 -999
2001-05-10 11:27:12 51°14.161 2°55.491 152.7 6.8 156.9 -999
2001-05-10 11:27:17 51°14.153 2°55.497 152.3 6.8 157.1 -999
2001-05-10 11:27:22 51°14.144 2°55.503 152.5 6.8 156.3 -999
2001-05-10 11:27:27 51°14.135 2°55.509 152.5 6.8 156.8 -999
2001-05-10 11:27:34 51°14.123 2°55.517 152.2 6.7 157.4 -999
2001-05-10 11:27:39 51°14.115 2°55.523 152.5 6.7 157.1 -999
2001-05-10 11:27:51 51°14.094 2°55.537 151.7 6.7 155.6 -999
2001-05-10 11:27:56 51°14.086 2°55.543 151.3 6.7 155.5 -999